Portada
METAR-TAF:

METAR-TAF

Aeroports :

Mahshahr, Iran

latitud: 30-33-23N, longitud: 049-09-07E, altitud: 2 m

Observació

L'informe es va fer fa 23 minuts, a les 11:00 UTC
Vent 6 kt del Est
Temperatura 19°C
Humitat 88%
Pressió 1016 hPa
Visibilitat 10 km o més
Cel ennuvolat a una alçada de 3000 ft
Núvols disperses a una alçada de 3500 ft, Cumulonimbus.

METAR: OIAM 181100Z 10006KT 9999 BKN030 SCT035CB 19/17 Q1016 RERA

Hora: 14:53 (11:23 UTC)


TAF: manca

Observacions i pronòstics meteorològics de més de 4000 aeroports (METAR i TAF).

Les estacions disponibles són els punts grocs i vermells al mapa.

Posi el ratolí al punt desitjat per veure el nom de l'estació.

Feu clic per veure les observacions i els pronòstics meteorològics.

Per canviar el mapa: feu clic els botons verds amb una creu de color negre per apropar; al botó verd amb un guió per allunyar la imatge; o en les fletxes verdes per a mapes adjacents.


METAR-TAF: